Time;durP1;ratioP1;P1;durP2;ratioP2;P2;SDS_P1;SDS_P2;PMS_P1;PMS_P2;Temp;Humidity;BMP_temperature;BMP_pressure;BME280_temperature;BME280_humidity;BME280_pressure;Samples;Min_cycle;Max_cycle;Signal;HPM_P1;HPM_P2
2022/12/29 00:01:13;;;;;;;;;;;;;;;10.61;96.60;100022.31;5082040;28;19938;-59
2022/12/29 00:03:38;;;;;;;;;;;;;;;10.61;96.38;100010.88;5084639;28;20526;-61
2022/12/29 00:06:03;;;;;;;;;;;;;;;10.58;97.00;100008.59;5086686;28;19934;-62
2022/12/29 00:08:41;;;;;;;;;;;;;;;10.55;97.19;100007.16;5079450;28;19916;-61
2022/12/29 00:11:11;;;;;;;;;;;;;;;10.49;97.32;100003.41;5079555;28;19939;-61
2022/12/29 00:16:20;;;;;;;;;;;;;;;10.49;97.54;99992.81;5076758;28;20011;-61
2022/12/29 00:18:46;;;;;;;;;;;;;;;10.46;97.44;99987.88;5077730;28;20362;-60
2022/12/29 00:35:09;;;;;;;;;;;;;;;9.75;98.97;99980.75;5081672;28;19971;-61
2022/12/29 00:45:47;;;;;;;;;;;;;;;9.26;100.00;99953.06;5093962;28;19981;-61
2022/12/29 00:48:13;;;;;;;;;;;;;;;9.19;100.00;99932.75;5072764;28;19955;-61
2022/12/29 00:50:38;;;;;;;;;;;;;;;9.10;100.00;99928.59;5068549;28;20015;-61
2022/12/29 00:53:03;;;;;;;;;;;;;;;9.04;100.00;99930.13;5085401;28;20299;-58
2022/12/29 00:55:28;;;;;;;;;;;;;;;9.04;100.00;99934.63;5086213;28;19963;-59
2022/12/29 00:57:54;;;;;;;;;;;;;;;9.03;100.00;99936.44;5079615;28;20538;-60
2022/12/29 01:00:19;;;;;;;;;;;;;;;9.04;100.00;99934.63;5074629;28;19990;-60
2022/12/29 01:02:44;;;;;;;;;;;;;;;9.08;100.00;99949.13;5076465;28;19962;-61
2022/12/29 01:05:09;;;;;;;;;;;;;;;9.14;100.00;99928.03;5084077;28;19916;-58
2022/12/29 01:07:34;;;;;;;;;;;;;;;9.25;100.00;99922.28;5077309;28;19981;-61
2022/12/29 01:10:11;;;;;;;;;;;;;;;9.33;100.00;99910.75;5068972;28;19991;-58
2022/12/29 01:12:40;;;;;;;;;;;;;;;9.40;100.00;99905.53;5071342;28;19969;-62
2022/12/29 01:15:06;;;;;;;;;;;;;;;9.46;100.00;99905.59;5079626;28;19920;-60
2022/12/29 01:17:31;;;;;;;;;;;;;;;9.54;100.00;99899.34;5076760;28;19927;-61
2022/12/29 01:19:56;;;;;;;;;;;;;;;9.60;100.00;99903.94;5075090;28;19920;-59
2022/12/29 01:22:21;;;;;;;;;;;;;;;9.64;100.00;99915.81;5089655;28;20008;-61
2022/12/29 01:24:46;;;;;;;;;;;;;;;9.71;100.00;99919.34;5093825;28;19936;-59
2022/12/29 01:27:12;;;;;;;;;;;;;;;9.79;100.00;99915.75;5080732;28;20019;-64
2022/12/29 01:29:37;;;;;;;;;;;;;;;9.90;100.00;99917.91;5084858;28;19951;-60
2022/12/29 01:32:02;;;;;;;;;;;;;;;9.94;100.00;99903.25;5080584;28;19923;-61
2022/12/29 01:34:27;;;;;;;;;;;;;;;10.01;100.00;99888.22;5074611;28;19955;-62
2022/12/29 01:36:52;;;;;;;;;;;;;;;10.04;100.00;99885.19;5086157;28;19956;-59
2022/12/29 01:39:18;;;;;;;;;;;;;;;10.09;100.00;99908.50;5078299;28;20019;-61
2022/12/29 01:41:43;;;;;;;;;;;;;;;10.15;100.00;99900.63;5087111;28;19916;-60
2022/12/29 01:44:27;;;;;;;;;;;;;;;10.20;100.00;99890.28;5082851;28;19955;-60
2022/12/29 01:46:52;;;;;;;;;;;;;;;10.26;100.00;99888.69;5083799;28;20261;-60
2022/12/29 01:49:19;;;;;;;;;;;;;;;10.34;100.00;99885.06;5085783;28;19912;-61
2022/12/29 01:51:47;;;;;;;;;;;;;;;10.43;100.00;99897.19;5083409;28;20335;-61
2022/12/29 01:54:15;;;;;;;;;;;;;;;10.50;100.00;99890.09;5083675;28;20295;-60
2022/12/29 01:56:41;;;;;;;;;;;;;;;10.57;98.73;99892.78;5082104;28;19969;-57
2022/12/29 01:59:10;;;;;;;;;;;;;;;10.61;97.91;99888.72;5085534;28;19916;-61
2022/12/29 02:01:35;;;;;;;;;;;;;;;10.66;96.92;99899.59;5080283;28;19920;-60
2022/12/29 02:04:01;;;;;;;;;;;;;;;10.68;96.37;99916.97;5081025;28;20479;-61
2022/12/29 02:06:29;;;;;;;;;;;;;;;10.71;95.88;99883.91;5082923;28;19916;-60
2022/12/29 02:08:55;;;;;;;;;;;;;;;10.71;95.38;99900.66;5075397;28;19924;-60
2022/12/29 02:11:21;;;;;;;;;;;;;;;10.70;94.68;99899.03;5083024;28;19938;-61
2022/12/29 02:13:46;;;;;;;;;;;;;;;10.71;94.63;99905.97;5082680;28;19912;-60
2022/12/29 02:16:14;;;;;;;;;;;;;;;10.74;94.30;99892.31;5081749;28;19920;-61
2022/12/29 02:18:51;;;;;;;;;;;;;;;10.83;93.39;99899.09;5073221;28;20284;-60
2022/12/29 02:21:16;;;;;;;;;;;;;;;10.89;92.98;99904.63;5086174;28;19991;-65
2022/12/29 02:24:00;;;;;;;;;;;;;;;10.86;92.72;99898.72;5082318;28;20061;-60
2022/12/29 02:26:25;;;;;;;;;;;;;;;10.87;92.24;99912.81;5077394;28;19960;-61
2022/12/29 02:29:02;;;;;;;;;;;;;;;10.89;92.04;99916.09;5081156;28;19963;-61
2022/12/29 02:31:52;;;;;;;;;;;;;;;10.87;92.06;99894.22;5088423;28;19920;-60
2022/12/29 02:34:29;;;;;;;;;;;;;;;10.88;91.78;99900.34;5085088;28;19928;-61
2022/12/29 02:36:54;;;;;;;;;;;;;;;10.91;91.74;99899.94;5088891;28;19939;-59
2022/12/29 02:39:22;;;;;;;;;;;;;;;10.88;91.45;99901.16;5082423;28;19920;-62
2022/12/29 02:41:59;;;;;;;;;;;;;;;10.92;90.88;99883.00;5079519;28;19920;-61
2022/12/29 02:44:27;;;;;;;;;;;;;;;10.94;90.65;99888.94;5080691;28;19920;-60
2022/12/29 02:47:08;;;;;;;;;;;;;;;10.92;90.77;99877.69;5086667;28;20011;-60
2022/12/29 02:49:39;;;;;;;;;;;;;;;10.90;90.41;99893.81;5084837;28;20411;-60
2022/12/29 02:52:06;;;;;;;;;;;;;;;10.90;90.65;99898.31;5087123;28;19922;-58
2022/12/29 02:54:40;;;;;;;;;;;;;;;10.90;90.71;99919.56;5088184;28;19982;-62
2022/12/29 02:57:20;;;;;;;;;;;;;;;10.88;90.24;99892.38;5084924;28;19992;-60
2022/12/29 02:59:47;;;;;;;;;;;;;;;10.86;90.67;99896.06;5081284;28;20006;-62
2022/12/29 03:02:20;;;;;;;;;;;;;;;10.81;90.51;99882.53;5084812;28;19969;-61
2022/12/29 03:04:48;;;;;;;;;;;;;;;10.79;90.68;99878.44;5083885;28;19928;-61
2022/12/29 03:07:22;;;;;;;;;;;;;;;10.78;91.22;99885.59;5075500;28;19920;-59
2022/12/29 03:09:56;;;;;;;;;;;;;;;10.73;91.38;99881.88;5077241;28;19932;-61
2022/12/29 03:18:06;;;;;;;;;;;;;;;10.66;91.35;99873.84;5076761;28;20406;-62
2022/12/29 03:20:36;;;;;;;;;;;;;;;10.64;91.56;99875.06;5094204;28;19948;-60
2022/12/29 03:23:03;;;;;;;;;;;;;;;10.60;91.82;99895.06;5078845;28;19916;-58
2022/12/29 03:25:33;;;;;;;;;;;;;;;10.60;91.69;99887.91;5083246;28;19961;-62
2022/12/29 03:28:01;;;;;;;;;;;;;;;10.58;91.90;99874.00;5075290;28;19964;-61
2022/12/29 03:30:27;;;;;;;;;;;;;;;10.55;91.69;99880.53;5079558;28;19924;-61
2022/12/29 03:32:58;;;;;;;;;;;;;;;10.54;91.66;99878.91;5078919;28;19965;-61
2022/12/29 03:35:24;;;;;;;;;;;;;;;10.52;91.48;99869.47;5086571;28;19919;-61
2022/12/29 03:38:05;;;;;;;;;;;;;;;10.52;91.64;99872.97;5084948;28;19916;-60
2022/12/29 03:40:31;;;;;;;;;;;;;;;10.49;91.74;99883.16;5082841;28;19920;-61
2022/12/29 03:42:57;;;;;;;;;;;;;;;10.46;91.87;99876.41;5077574;28;19916;-61
2022/12/29 03:45:22;;;;;;;;;;;;;;;10.44;91.92;99872.28;5082369;28;19924;-61
2022/12/29 03:47:47;;;;;;;;;;;;;;;10.44;91.75;99877.59;5084730;28;19918;-61
2022/12/29 03:50:13;;;;;;;;;;;;;;;10.42;91.77;99874.31;5088617;28;19919;-58
2022/12/29 03:52:38;;;;;;;;;;;;;;;10.40;92.00;99873.66;5080884;28;19912;-58
2022/12/29 03:55:03;;;;;;;;;;;;;;;10.40;91.66;99866.53;5087913;28;19943;-61
2022/12/29 03:57:28;;;;;;;;;;;;;;;10.41;91.63;99862.88;5075528;28;20360;-58
2022/12/29 03:59:54;;;;;;;;;;;;;;;10.38;91.65;99888.97;5076212;28;19958;-60
2022/12/29 04:02:19;;;;;;;;;;;;;;;10.34;91.85;99874.44;5077879;28;19916;-60
2022/12/29 04:04:44;;;;;;;;;;;;;;;10.33;92.13;99883.41;5075631;28;19967;-61
2022/12/29 04:07:09;;;;;;;;;;;;;;;10.31;92.37;99883.63;5082420;28;19969;-63
2022/12/29 04:09:34;;;;;;;;;;;;;;;10.32;92.44;99879.13;5074569;28;19920;-61
2022/12/29 04:11:59;;;;;;;;;;;;;;;10.29;92.35;99888.28;5074912;28;20359;-60
2022/12/29 04:14:25;;;;;;;;;;;;;;;10.27;92.55;99882.38;5082811;28;19916;-61
2022/12/29 04:16:50;;;;;;;;;;;;;;;10.23;92.37;99876.63;5075530;28;19924;-61
2022/12/29 04:19:15;;;;;;;;;;;;;;;10.22;92.85;99890.91;5076176;28;19915;-61
2022/12/29 04:21:40;;;;;;;;;;;;;;;10.20;92.67;99892.06;5076254;28;19924;-61
2022/12/29 04:24:06;;;;;;;;;;;;;;;10.15;92.84;99887.34;5086224;28;20390;-61
2022/12/29 04:26:31;;;;;;;;;;;;;;;10.14;92.58;99891.00;5080349;28;19920;-61
2022/12/29 04:28:57;;;;;;;;;;;;;;;10.15;92.97;99902.44;5084492;28;20311;-60
2022/12/29 04:31:22;;;;;;;;;;;;;;;10.13;92.49;99894.69;5083807;28;19916;-62
2022/12/29 04:33:47;;;;;;;;;;;;;;;10.12;92.43;99900.16;5077580;28;19927;-61
2022/12/29 04:36:12;;;;;;;;;;;;;;;10.12;92.14;99885.06;5079237;28;19916;-63
2022/12/29 04:38:37;;;;;;;;;;;;;;;10.08;91.83;99875.00;5080297;28;19925;-59
2022/12/29 04:41:02;;;;;;;;;;;;;;;10.04;91.60;99902.94;5081551;28;19963;-61
2022/12/29 04:43:28;;;;;;;;;;;;;;;10.01;91.80;99900.66;5079853;28;20307;-60
2022/12/29 04:45:53;;;;;;;;;;;;;;;9.99;91.73;99886.78;5074145;28;19916;-61
2022/12/29 04:48:18;;;;;;;;;;;;;;;9.94;91.73;99890.81;5081410;28;20383;-58
2022/12/29 04:50:43;;;;;;;;;;;;;;;9.95;91.73;99896.94;5072842;28;19915;-61
2022/12/29 04:53:09;;;;;;;;;;;;;;;9.92;91.29;99899.97;5088478;28;20007;-61
2022/12/29 04:55:34;;;;;;;;;;;;;;;9.94;91.13;99916.53;5082210;28;19916;-60
2022/12/29 04:57:59;;;;;;;;;;;;;;;9.92;90.60;99931.81;5093665;28;20022;-59
2022/12/29 05:00:25;;;;;;;;;;;;;;;9.94;90.15;99954.47;5085300;28;19924;-60
2022/12/29 05:02:50;;;;;;;;;;;;;;;9.93;89.53;99928.97;5083610;28;19922;-60
2022/12/29 05:05:15;;;;;;;;;;;;;;;9.92;89.04;99931.81;5084241;28;19928;-62
2022/12/29 05:07:40;;;;;;;;;;;;;;;9.86;89.03;99938.69;5084683;28;19920;-59
2022/12/29 05:10:06;;;;;;;;;;;;;;;9.84;88.68;99930.09;5082289;28;19930;-59
2022/12/29 05:12:35;;;;;;;;;;;;;;;9.81;88.75;99951.66;5080122;28;19920;-62
2022/12/29 05:15:02;;;;;;;;;;;;;;;9.74;88.77;99947.31;5086764;28;19917;-61
2022/12/29 05:17:27;;;;;;;;;;;;;;;9.70;88.49;99959.28;5083333;28;19959;-61
2022/12/29 05:19:52;;;;;;;;;;;;;;;9.72;88.40;99962.56;5084630;28;19944;-59
2022/12/29 05:22:18;;;;;;;;;;;;;;;9.72;88.76;99967.88;5080942;28;19920;-60
2022/12/29 05:24:43;;;;;;;;;;;;;;;9.74;88.33;99969.34;5084918;28;19985;-60
2022/12/29 05:27:08;;;;;;;;;;;;;;;9.74;88.17;99966.69;5080328;28;20364;-60
2022/12/29 05:29:33;;;;;;;;;;;;;;;9.74;88.06;99972.00;5089315;28;20102;-59
2022/12/29 05:31:58;;;;;;;;;;;;;;;9.73;87.94;99970.34;5078476;28;19990;-60
2022/12/29 05:34:24;;;;;;;;;;;;;;;9.74;87.15;99973.81;5081219;28;20453;-64
2022/12/29 05:36:49;;;;;;;;;;;;;;;9.77;86.68;100002.59;5091173;28;19947;-61
2022/12/29 05:39:14;;;;;;;;;;;;;;;9.78;86.88;99969.78;5079127;28;20668;-63
2022/12/29 05:41:39;;;;;;;;;;;;;;;9.76;86.27;99985.06;5088577;28;19916;-59
2022/12/29 05:44:04;;;;;;;;;;;;;;;9.76;86.31;99985.06;5089434;28;20287;-60
2022/12/29 05:46:30;;;;;;;;;;;;;;;9.78;85.73;99993.66;5087035;28;19916;-58
2022/12/29 05:48:55;;;;;;;;;;;;;;;9.79;85.66;99989.97;5083672;28;19947;-61
2022/12/29 05:51:20;;;;;;;;;;;;;;;9.79;85.37;99989.97;5088418;28;20002;-62
2022/12/29 05:53:45;;;;;;;;;;;;;;;9.80;85.15;99991.63;5085988;28;19981;-58
2022/12/29 05:56:10;;;;;;;;;;;;;;;9.81;85.17;99993.28;5084405;28;19951;-62
2022/12/29 05:58:36;;;;;;;;;;;;;;;9.80;85.22;99992.44;5079014;28;19919;-61
2022/12/29 06:01:01;;;;;;;;;;;;;;;9.79;85.05;99995.28;5082722;28;19916;-61
2022/12/29 06:03:26;;;;;;;;;;;;;;;9.78;85.12;99993.66;5078006;28;19920;-60
2022/12/29 06:05:51;;;;;;;;;;;;;;;9.77;84.75;99984.03;5081626;28;19959;-58
2022/12/29 06:08:16;;;;;;;;;;;;;;;9.79;84.56;99982.84;5080669;28;19938;-60
2022/12/29 06:10:41;;;;;;;;;;;;;;;9.82;84.40;99976.34;5080092;28;20401;-59
2022/12/29 06:13:07;;;;;;;;;;;;;;;9.87;83.87;99987.25;5081087;28;19920;-60
2022/12/29 06:15:32;;;;;;;;;;;;;;;9.87;83.44;99990.72;5081933;28;20091;-60
2022/12/29 06:17:57;;;;;;;;;;;;;;;9.91;83.03;99975.25;5082827;28;20341;-58
2022/12/29 06:20:22;;;;;;;;;;;;;;;9.93;82.37;99966.09;5085417;28;19916;-58
2022/12/29 06:22:49;;;;;;;;;;;;;;;9.92;82.46;99976.91;5074026;28;19964;-61
2022/12/29 06:25:14;;;;;;;;;;;;;;;9.88;82.56;99983.59;5081800;28;19924;-61
2022/12/29 06:27:39;;;;;;;;;;;;;;;9.82;82.35;99989.59;5080289;28;19935;-61
2022/12/29 06:30:05;;;;;;;;;;;;;;;9.80;82.15;99983.66;5075214;28;19924;-61
2022/12/29 06:32:30;;;;;;;;;;;;;;;9.80;82.08;99981.84;5082057;28;20344;-60
2022/12/29 06:34:55;;;;;;;;;;;;;;;9.78;82.41;99972.44;5077356;28;19923;-61
2022/12/29 06:37:20;;;;;;;;;;;;;;;9.77;82.28;99982.22;5075492;28;19927;-61
2022/12/29 06:39:46;;;;;;;;;;;;;;;9.76;81.91;99975.28;5082276;28;20375;-62
2022/12/29 06:42:11;;;;;;;;;;;;;;;9.74;82.12;100001.16;5088366;28;20052;-60
2022/12/29 06:44:36;;;;;;;;;;;;;;;9.71;82.30;99990.91;5085362;28;20391;-61
2022/12/29 06:47:01;;;;;;;;;;;;;;;9.73;82.03;99988.09;5084841;28;19959;-60
2022/12/29 06:49:26;;;;;;;;;;;;;;;9.75;82.28;99984.22;5075588;28;20395;-61
2022/12/29 06:51:51;;;;;;;;;;;;;;;9.76;82.57;100017.69;5083468;28;19924;-59
2022/12/29 06:54:17;;;;;;;;;;;;;;;9.84;82.05;99998.22;5078954;28;20538;-60
2022/12/29 06:56:42;;;;;;;;;;;;;;;9.83;82.54;99989.44;5084803;28;19973;-60
2022/12/29 06:59:07;;;;;;;;;;;;;;;9.82;82.41;99984.31;5077330;28;19923;-60
2022/12/29 07:01:32;;;;;;;;;;;;;;;9.85;82.45;99984.78;5087547;28;19923;-62
2022/12/29 07:03:57;;;;;;;;;;;;;;;9.86;82.37;99997.03;5088400;28;19955;-60
2022/12/29 07:06:23;;;;;;;;;;;;;;;9.85;82.26;99991.91;5082729;28;20400;-61
2022/12/29 07:08:48;;;;;;;;;;;;;;;9.88;82.08;99992.34;5072072;28;20007;-58
2022/12/29 07:11:13;;;;;;;;;;;;;;;9.85;82.43;100000.69;5079200;28;19923;-58
2022/12/29 07:13:38;;;;;;;;;;;;;;;9.89;82.14;100003.78;5080254;28;19924;-64
2022/12/29 07:16:07;;;;;;;;;;;;;;;9.92;81.90;100017.50;5086556;28;19912;-62
2022/12/29 07:18:32;;;;;;;;;;;;;;;9.99;81.31;100022.03;5073434;28;19971;-58
2022/12/29 07:20:57;;;;;;;;;;;;;;;10.02;80.89;100026.97;5091590;28;20033;-62
2022/12/29 07:23:23;;;;;;;;;;;;;;;10.05;80.70;100024.78;5078129;28;19920;-62
2022/12/29 07:25:48;;;;;;;;;;;;;;;10.03;80.26;100024.13;5077799;28;19981;-62
2022/12/29 07:28:13;;;;;;;;;;;;;;;10.04;80.39;100025.78;5081481;28;19916;-61
2022/12/29 07:30:39;;;;;;;;;;;;;;;10.01;80.07;100035.94;5081966;28;19955;-63
2022/12/29 07:33:04;;;;;;;;;;;;;;;9.98;80.29;100042.44;5084022;28;19920;-59
2022/12/29 07:35:30;;;;;;;;;;;;;;;9.90;80.29;100050.53;5094014;28;19923;-60
2022/12/29 07:37:55;;;;;;;;;;;;;;;9.89;79.80;100055.00;5087471;28;19924;-61
2022/12/29 07:40:20;;;;;;;;;;;;;;;9.83;79.60;100057.53;5081612;28;20003;-61
2022/12/29 07:42:45;;;;;;;;;;;;;;;9.81;79.38;100039.16;5078608;28;19928;-62
2022/12/29 07:45:10;;;;;;;;;;;;;;;9.73;79.38;100051.72;5086521;28;19920;-58
2022/12/29 07:47:36;;;;;;;;;;;;;;;9.74;79.09;100046.22;5087818;28;19944;-61
2022/12/29 07:50:01;;;;;;;;;;;;;;;9.75;78.68;100052.34;5087331;28;19912;-58
2022/12/29 07:52:26;;;;;;;;;;;;;;;9.81;78.19;100065.69;5083318;28;20376;-59
2022/12/29 07:54:51;;;;;;;;;;;;;;;9.84;78.37;100064.53;5085889;28;19955;-58
2022/12/29 07:57:16;;;;;;;;;;;;;;;9.85;78.03;100055.56;5081443;28;19916;-60
2022/12/29 07:59:41;;;;;;;;;;;;;;;9.87;78.19;100067.63;5076897;28;19916;-59
2022/12/29 08:02:09;;;;;;;;;;;;;;;9.87;78.08;100069.44;5082160;28;19917;-60
2022/12/29 08:04:34;;;;;;;;;;;;;;;9.82;78.36;100079.78;5083990;28;19927;-60
2022/12/29 08:06:59;;;;;;;;;;;;;;;9.81;78.39;100083.44;5087130;28;19912;-62
2022/12/29 08:09:25;;;;;;;;;;;;;;;9.77;79.00;100075.03;5082182;28;19916;-61
2022/12/29 08:11:50;;;;;;;;;;;;;;;9.75;79.23;100066.44;5081700;28;20011;-62
2022/12/29 08:14:15;;;;;;;;;;;;;;;9.70;79.73;100068.00;5085552;28;19912;-61
2022/12/29 08:16:40;;;;;;;;;;;;;;;9.58;79.92;100094.16;5083123;28;19947;-58
2022/12/29 08:19:06;;;;;;;;;;;;;;;9.59;80.16;100082.53;5073353;28;19921;-59
2022/12/29 08:21:31;;;;;;;;;;;;;;;9.56;80.43;100070.47;5084505;28;19916;-61
2022/12/29 08:23:57;;;;;;;;;;;;;;;9.54;80.92;100076.94;5072804;28;20372;-58
2022/12/29 08:26:22;;;;;;;;;;;;;;;9.55;81.03;100070.66;5077061;28;19922;-58
2022/12/29 08:28:47;;;;;;;;;;;;;;;9.55;81.07;100071.47;5078039;28;19922;-59
2022/12/29 08:31:12;;;;;;;;;;;;;;;9.60;80.56;100087.66;5079788;28;20304;-60
2022/12/29 08:33:37;;;;;;;;;;;;;;;9.59;80.44;100070.09;5078171;28;19953;-61
2022/12/29 08:36:04;;;;;;;;;;;;;;;9.61;80.13;100065.44;5084697;28;19920;-61
2022/12/29 08:38:29;;;;;;;;;;;;;;;9.68;79.82;100064.72;5077992;28;19927;-59
2022/12/29 08:40:55;;;;;;;;;;;;;;;9.72;79.59;100063.31;5076973;28;19916;-61
2022/12/29 08:43:20;;;;;;;;;;;;;;;9.80;79.00;100065.88;5077028;28;20401;-59
2022/12/29 08:45:45;;;;;;;;;;;;;;;9.90;78.08;100064.59;5075508;28;19943;-62
2022/12/29 08:48:11;;;;;;;;;;;;;;;9.97;77.89;100063.84;5075516;28;20383;-62
2022/12/29 08:50:36;;;;;;;;;;;;;;;9.92;77.97;100067.88;5074134;28;19923;-59
2022/12/29 08:53:01;;;;;;;;;;;;;;;9.95;77.18;100066.69;5085988;28;19920;-58
2022/12/29 08:55:26;;;;;;;;;;;;;;;10.01;76.79;100071.25;5081389;28;20350;-61
2022/12/29 08:57:51;;;;;;;;;;;;;;;9.85;77.48;100074.13;5083905;28;19962;-61
2022/12/29 09:00:17;;;;;;;;;;;;;;;9.74;77.80;100079.88;5082334;28;19920;-58
2022/12/29 09:02:42;;;;;;;;;;;;;;;9.71;77.82;100061.69;5081510;28;19916;-61
2022/12/29 09:05:08;;;;;;;;;;;;;;;9.75;77.87;100073.56;5082745;28;19920;-60
2022/12/29 09:07:33;;;;;;;;;;;;;;;9.81;77.86;100091.38;5081097;28;19920;-57
2022/12/29 09:09:58;;;;;;;;;;;;;;;9.86;77.90;100075.78;5073844;28;19932;-60
2022/12/29 09:12:23;;;;;;;;;;;;;;;9.89;77.56;100076.22;5075410;28;20008;-60
2022/12/29 09:14:48;;;;;;;;;;;;;;;9.90;77.78;100083.16;5078038;28;19920;-62
2022/12/29 09:19:57;;;;;;;;;;;;;;;10.00;77.11;100116.53;5092971;28;19934;-60
2022/12/29 09:22:22;;;;;;;;;;;;;;;10.00;77.20;100082.03;5082740;28;19916;-59
2022/12/29 09:24:48;;;;;;;;;;;;;;;10.02;77.44;100106.56;5085013;28;19935;-60
2022/12/29 09:27:13;;;;;;;;;;;;;;;10.01;77.37;100092.47;5080395;28;20053;-59
2022/12/29 09:29:38;;;;;;;;;;;;;;;9.90;77.88;100104.38;5093907;28;19916;-61
2022/12/29 09:32:03;;;;;;;;;;;;;;;9.59;79.18;100109.88;5078923;28;19953;-60
2022/12/29 09:34:29;;;;;;;;;;;;;;;9.42;80.71;100091.66;5080366;28;20008;-60
2022/12/29 09:36:55;;;;;;;;;;;;;;;9.33;81.80;100106.81;5078166;28;19920;-57
2022/12/29 09:39:21;;;;;;;;;;;;;;;9.34;82.62;100119.06;5073333;28;19939;-60
2022/12/29 09:42:06;;;;;;;;;;;;;;;9.40;83.15;100150.13;5085048;28;20014;-58
2022/12/29 09:44:50;;;;;;;;;;;;;;;9.20;84.42;100130.44;5085775;28;19917;-61
2022/12/29 09:47:17;;;;;;;;;;;;;;;8.66;87.69;100133.97;5081470;28;19916;-61
2022/12/29 09:50:00;;;;;;;;;;;;;;;8.33;89.95;100145.72;5079490;28;20561;-61
2022/12/29 09:52:29;;;;;;;;;;;;;;;8.16;92.19;100160.88;5076748;28;20268;-59
2022/12/29 09:55:00;;;;;;;;;;;;;;;8.07;93.89;100156.56;5089344;28;20478;-60
2022/12/29 09:57:29;;;;;;;;;;;;;;;8.01;95.54;100165.19;5082476;28;19913;-61
2022/12/29 09:59:59;;;;;;;;;;;;;;;7.94;96.85;100159.78;5080152;28;19936;-60
2022/12/29 10:02:33;;;;;;;;;;;;;;;7.92;97.56;100190.03;5083705;28;19917;-61
2022/12/29 10:04:58;;;;;;;;;;;;;;;7.88;98.72;100159.63;5078139;28;20355;-61
2022/12/29 10:07:32;;;;;;;;;;;;;;;7.89;99.34;100190.38;5083846;28;20364;-61
2022/12/29 10:10:18;;;;;;;;;;;;;;;7.86;100.00;100188.06;5084787;28;19923;-61
2022/12/29 10:12:52;;;;;;;;;;;;;;;7.85;100.00;100204.91;5091357;28;19924;-65
2022/12/29 10:15:37;;;;;;;;;;;;;;;7.84;100.00;100205.91;5076690;28;20505;-59
2022/12/29 10:18:21;;;;;;;;;;;;;;;7.85;100.00;100204.91;5073519;28;20057;-60
2022/12/29 10:20:52;;;;;;;;;;;;;;;7.81;100.00;100214.19;5089643;28;19919;-60
2022/12/29 10:23:32;;;;;;;;;;;;;;;7.81;100.00;100203.59;5085055;28;19967;-59
2022/12/29 10:25:59;;;;;;;;;;;;;;;7.79;100.00;100224.88;5089476;28;19979;-61
2022/12/29 10:28:33;;;;;;;;;;;;;;;7.81;100.00;100214.19;5093259;28;19916;-61
2022/12/29 10:31:00;;;;;;;;;;;;;;;7.80;100.00;100245.03;5077125;28;20468;-61
2022/12/29 10:33:34;;;;;;;;;;;;;;;7.82;100.00;100240.44;5076609;28;19920;-60
2022/12/29 10:35:59;;;;;;;;;;;;;;;7.81;100.00;100235.31;5089918;28;20631;-61
2022/12/29 10:38:33;;;;;;;;;;;;;;;7.80;100.00;100236.28;5086761;28;20002;-61
2022/12/29 10:40:58;;;;;;;;;;;;;;;7.78;100.00;100245.22;5084011;28;19964;-62
2022/12/29 10:43:28;;;;;;;;;;;;;;;7.80;100.00;100255.63;5075550;28;19920;-59
2022/12/29 10:45:54;;;;;;;;;;;;;;;7.81;100.00;100269.69;5086197;28;20003;-61
2022/12/29 10:48:22;;;;;;;;;;;;;;;7.86;100.00;100270.00;5084527;28;19912;-58
2022/12/29 10:50:47;;;;;;;;;;;;;;;7.91;100.00;100265.03;5085951;28;19934;-61
2022/12/29 10:53:18;;;;;;;;;;;;;;;7.97;100.00;100261.72;5080706;28;20376;-59
2022/12/29 10:55:44;;;;;;;;;;;;;;;8.05;100.00;100277.56;5085669;28;20970;-59
2022/12/29 10:58:12;;;;;;;;;;;;;;;8.16;100.00;100269.28;5074379;28;19920;-57
2022/12/29 11:00:37;;;;;;;;;;;;;;;8.25;100.00;100278.84;5082871;28;19920;-59
2022/12/29 11:03:21;;;;;;;;;;;;;;;8.33;100.00;100278.00;5084199;28;19931;-61
2022/12/29 11:06:06;;;;;;;;;;;;;;;8.43;100.00;100283.16;5077290;28;19921;-61
2022/12/29 11:08:52;;;;;;;;;;;;;;;8.51;100.00;100293.69;5083414;28;20007;-63
2022/12/29 11:11:22;;;;;;;;;;;;;;;8.54;99.34;100306.59;5068814;28;20625;-58
2022/12/29 11:13:55;;;;;;;;;;;;;;;8.59;99.14;100277.78;5074525;28;20516;-57
2022/12/29 11:16:30;;;;;;;;;;;;;;;8.66;98.19;100284.84;5075503;28;20344;-59
2022/12/29 11:18:56;;;;;;;;;;;;;;;8.78;97.63;100290.63;5084263;28;20423;-59
2022/12/29 11:21:30;;;;;;;;;;;;;;;8.87;97.13;100286.94;5081073;28;19915;-61
2022/12/29 11:23:57;;;;;;;;;;;;;;;8.94;96.21;100293.16;5076475;28;19928;-60
2022/12/29 11:26:23;;;;;;;;;;;;;;;8.95;95.69;100300.13;5086166;28;19912;-58
2022/12/29 11:29:08;;;;;;;;;;;;;;;8.97;95.01;100316.69;5080753;28;20299;-59
2022/12/29 11:31:45;;;;;;;;;;;;;;;8.98;95.00;100307.75;5079461;28;20494;-61
2022/12/29 11:34:16;;;;;;;;;;;;;;;9.00;94.47;100323.47;5078966;28;19916;-61
2022/12/29 11:36:42;;;;;;;;;;;;;;;9.06;94.02;100316.63;5084132;28;19937;-58
2022/12/29 11:39:23;;;;;;;;;;;;;;;9.13;93.66;100318.41;5079411;28;19916;-64
2022/12/29 11:41:51;;;;;;;;;;;;;;;9.19;93.23;100327.47;5081530;28;19920;-61
2022/12/29 11:44:17;;;;;;;;;;;;;;;9.23;92.51;100313.72;5081546;28;19941;-59
2022/12/29 11:46:46;;;;;;;;;;;;;;;9.22;92.06;100335.91;5077962;28;19931;-60
2022/12/29 11:49:13;;;;;;;;;;;;;;;9.25;91.55;100330.28;5087182;28;19919;-60
2022/12/29 11:51:41;;;;;;;;;;;;;;;9.27;91.52;100338.06;5074589;28;19999;-60
2022/12/29 11:54:06;;;;;;;;;;;;;;;9.30;91.62;100332.41;5086540;28;19919;-63
2022/12/29 11:56:40;;;;;;;;;;;;;;;9.35;91.11;100364.50;5081443;28;19913;-58
2022/12/29 11:59:24;;;;;;;;;;;;;;;9.36;90.71;100354.72;5083345;28;20470;-59
2022/12/29 12:01:49;;;;;;;;;;;;;;;9.40;90.71;100351.53;5069771;28;19920;-63
2022/12/29 12:04:17;;;;;;;;;;;;;;;9.45;90.30;100382.81;5078229;28;19973;-59
2022/12/29 12:06:56;;;;;;;;;;;;;;;9.52;89.73;100346.66;5076298;28;19953;-58
2022/12/29 12:09:25;;;;;;;;;;;;;;;9.47;89.38;100352.47;5077606;28;20504;-60
2022/12/29 12:11:53;;;;;;;;;;;;;;;9.47;89.67;100352.47;5077023;28;19923;-61
2022/12/29 12:14:25;;;;;;;;;;;;;;;9.47;89.38;100360.44;5078872;28;20305;-58
2022/12/29 12:16:54;;;;;;;;;;;;;;;9.55;88.89;100349.81;5075550;28;19977;-60
2022/12/29 12:19:38;;;;;;;;;;;;;;;9.65;89.41;100357.53;5073832;28;19924;-57
2022/12/29 12:22:25;;;;;;;;;;;;;;;9.75;88.88;100352.78;5082066;28;19921;-60
2022/12/29 12:24:55;;;;;;;;;;;;;;;9.78;88.49;100349.78;5078193;28;19920;-61
2022/12/29 12:27:29;;;;;;;;;;;;;;;9.73;87.71;100361.94;5080359;28;20375;-60
2022/12/29 12:29:54;;;;;;;;;;;;;;;9.69;87.62;100350.03;5074950;28;19958;-58
2022/12/29 12:32:27;;;;;;;;;;;;;;;9.68;87.53;100351.03;5078939;28;19967;-61
2022/12/29 12:34:52;;;;;;;;;;;;;;;9.73;87.71;100360.09;5083066;28;19924;-60
2022/12/29 12:37:34;;;;;;;;;;;;;;;9.73;87.05;100356.63;5089093;28;19916;-60
2022/12/29 12:40:18;;;;;;;;;;;;;;;9.73;86.82;100346.84;5080047;28;19921;-58
2022/12/29 12:42:46;;;;;;;;;;;;;;;9.69;86.54;100365.94;5080113;28;19920;-60
2022/12/29 12:45:13;;;;;;;;;;;;;;;9.49;86.71;100336.41;5076485;28;19928;-60
2022/12/29 12:47:54;;;;;;;;;;;;;;;9.20;87.88;100358.28;5074864;28;20053;-61
2022/12/29 12:50:31;;;;;;;;;;;;;;;9.16;88.62;100357.78;5064363;28;21174;-60
2022/12/29 12:52:56;;;;;;;;;;;;;;;9.18;88.43;100363.75;5083320;28;19916;-60
2022/12/29 12:55:21;;;;;;;;;;;;;;;9.15;88.55;100380.00;5075985;28;20003;-61
2022/12/29 12:57:46;;;;;;;;;;;;;;;9.23;88.63;100371.16;5073769;28;19961;-58
2022/12/29 13:00:17;;;;;;;;;;;;;;;9.33;88.57;100366.50;5086174;28;19923;-59
2022/12/29 13:02:49;;;;;;;;;;;;;;;9.44;87.60;100363.44;5086173;28;20014;-59
2022/12/29 13:05:34;;;;;;;;;;;;;;;9.58;86.96;100397.16;5078172;28;20303;-58
2022/12/29 13:08:25;;;;;;;;;;;;;;;9.62;86.03;100377.25;5081681;28;19917;-59
2022/12/29 13:10:55;;;;;;;;;;;;;;;9.69;85.24;100387.16;5071504;28;19970;-62
2022/12/29 13:13:26;;;;;;;;;;;;;;;9.73;84.92;100369.88;5076310;28;19995;-58
2022/12/29 13:15:51;;;;;;;;;;;;;;;9.73;84.38;100383.16;5082836;28;19917;-60
2022/12/29 13:18:19;;;;;;;;;;;;;;;9.69;84.26;100381.84;5079077;28;19917;-60
2022/12/29 13:20:44;;;;;;;;;;;;;;;9.65;83.96;100381.38;5077764;28;19959;-57
2022/12/29 13:23:28;;;;;;;;;;;;;;;9.65;83.57;100391.97;5081139;28;20363;-60
2022/12/29 13:25:56;;;;;;;;;;;;;;;9.43;84.68;100406.84;5078502;28;19952;-60